createdAt,value
2022-11-17T00:00:41.997Z,20.20
2022-11-17T00:01:44.359Z,20.20
2022-11-17T00:02:47.437Z,20.30
2022-11-17T00:03:51.064Z,20.20
2022-11-17T00:04:53.340Z,20.20
2022-11-17T00:05:55.588Z,20.20
2022-11-17T00:06:58.663Z,20.10
2022-11-17T00:08:01.101Z,20.20
2022-11-17T00:09:03.477Z,20.20
2022-11-17T00:10:06.359Z,20.20
2022-11-17T00:11:09.163Z,20.20
2022-11-17T00:12:32.882Z,20.10
2022-11-17T00:13:54.646Z,20.10
2022-11-17T00:14:56.939Z,20.10
2022-11-17T00:15:59.197Z,20.10
2022-11-17T00:17:05.745Z,20.10
2022-11-17T00:18:26.835Z,20.10
2022-11-17T00:19:49.437Z,20.10
2022-11-17T00:21:10.225Z,20.10
2022-11-17T00:22:12.487Z,20.10
2022-11-17T00:23:14.757Z,20.10
2022-11-17T00:24:17.126Z,20.10
2022-11-17T00:25:19.549Z,20.10
2022-11-17T00:26:24.532Z,20.10
2022-11-17T00:27:26.974Z,20.10
2022-11-17T00:28:29.458Z,20.10
2022-11-17T00:29:32.435Z,20.10
2022-11-17T00:30:53.476Z,20.10
2022-11-17T00:32:14.487Z,20.10
2022-11-17T00:33:35.799Z,20.10
2022-11-17T00:34:38.300Z,20.00
2022-11-17T00:35:40.624Z,20.00
2022-11-17T00:36:48.270Z,20.00
2022-11-17T00:38:09.344Z,20.00
2022-11-17T00:39:13.053Z,20.00
2022-11-17T00:40:15.352Z,20.00
2022-11-17T00:41:17.679Z,20.00
2022-11-17T00:42:20.014Z,20.00
2022-11-17T00:43:22.288Z,20.00
2022-11-17T00:44:25.320Z,20.00
2022-11-17T00:45:27.590Z,20.00
2022-11-17T00:46:30.120Z,20.10
2022-11-17T00:47:36.179Z,20.10
2022-11-17T00:48:38.483Z,20.10
2022-11-17T00:49:40.809Z,20.10
2022-11-17T00:50:43.063Z,20.10
2022-11-17T00:51:45.327Z,20.10
2022-11-17T00:52:47.637Z,20.10
2022-11-17T00:53:49.941Z,20.10
2022-11-17T00:54:52.252Z,20.10
2022-11-17T00:55:54.490Z,20.10
2022-11-17T00:56:56.811Z,20.10
2022-11-17T00:57:59.146Z,20.10
2022-11-17T00:59:01.522Z,20.10
2022-11-17T01:00:04.259Z,20.10
2022-11-17T01:01:07.436Z,20.10
2022-11-17T01:02:09.742Z,20.10
2022-11-17T01:03:11.979Z,20.20
2022-11-17T01:04:15.715Z,20.20
2022-11-17T01:05:18.115Z,20.20
2022-11-17T01:06:20.537Z,20.30
2022-11-17T01:07:22.964Z,20.30
2022-11-17T01:08:25.277Z,20.20
2022-11-17T01:09:27.576Z,20.30
2022-11-17T01:10:29.867Z,20.30
2022-11-17T01:11:32.256Z,20.30
2022-11-17T01:12:34.578Z,20.30
2022-11-17T01:13:38.973Z,20.20
2022-11-17T01:14:41.695Z,20.20
2022-11-17T01:15:44.058Z,20.20
2022-11-17T01:16:46.328Z,20.20
2022-11-17T01:17:48.850Z,20.20
2022-11-17T01:18:52.745Z,20.20
2022-11-17T01:19:55.095Z,20.10
2022-11-17T01:21:10.062Z,20.20
2022-11-17T01:22:12.976Z,20.20
2022-11-17T01:23:15.264Z,20.20
2022-11-17T01:24:18.040Z,20.20
2022-11-17T01:25:20.646Z,20.20
2022-11-17T01:26:25.962Z,20.20
2022-11-17T01:27:28.242Z,20.10
2022-11-17T01:28:30.659Z,20.10
2022-11-17T01:29:33.058Z,20.10
2022-11-17T01:30:35.333Z,20.10
2022-11-17T01:31:40.034Z,20.20
2022-11-17T01:32:42.340Z,20.20
2022-11-17T01:33:45.274Z,20.20
2022-11-17T01:34:47.848Z,20.20
2022-11-17T01:35:50.130Z,20.20
2022-11-17T01:37:11.033Z,20.10
2022-11-17T01:38:13.293Z,20.10
2022-11-17T01:39:15.610Z,20.20
2022-11-17T01:40:18.034Z,20.20
2022-11-17T01:41:23.798Z,20.20
2022-11-17T01:42:27.128Z,20.20
2022-11-17T01:43:43.688Z,20.20
2022-11-17T01:45:02.559Z,20.20
2022-11-17T01:46:06.713Z,20.20
2022-11-17T01:47:28.131Z,20.20
2022-11-17T01:48:30.565Z,20.20
2022-11-17T01:49:33.325Z,20.20
2022-11-17T01:50:47.108Z,20.10
2022-11-17T01:51:56.055Z,20.10
2022-11-17T01:53:02.425Z,20.10
2022-11-17T01:54:04.962Z,20.10
2022-11-17T01:55:09.927Z,20.10
2022-11-17T01:56:16.783Z,20.00
2022-11-17T01:57:24.476Z,20.00
2022-11-17T01:58:37.675Z,20.00
2022-11-17T01:59:44.587Z,20.00
2022-11-17T02:00:47.301Z,20.00
2022-11-17T02:01:56.638Z,20.00
2022-11-17T02:02:59.338Z,20.00
2022-11-17T02:04:01.830Z,20.00
2022-11-17T02:05:10.456Z,20.00
2022-11-17T02:06:20.936Z,20.00
2022-11-17T02:07:32.614Z,20.00
2022-11-17T02:08:38.331Z,20.00
2022-11-17T02:09:41.297Z,20.00
2022-11-17T02:10:48.562Z,20.00
2022-11-17T02:11:57.778Z,20.00
2022-11-17T02:13:01.332Z,20.10
2022-11-17T02:14:05.335Z,20.10
2022-11-17T02:15:08.196Z,20.10
2022-11-17T02:16:15.178Z,20.10
2022-11-17T02:17:18.946Z,20.10
2022-11-17T02:18:21.368Z,20.10
2022-11-17T02:19:27.339Z,20.10
2022-11-17T02:20:47.446Z,20.10
2022-11-17T02:21:58.198Z,20.10
2022-11-17T02:23:28.275Z,20.10
2022-11-17T02:24:48.296Z,20.20
2022-11-17T02:26:33.271Z,20.20
2022-11-17T02:27:53.499Z,20.20
2022-11-17T02:29:31.655Z,20.20
2022-11-17T02:30:58.488Z,19.80
2022-11-17T02:32:13.234Z,19.40
2022-11-17T02:33:24.921Z,19.00
2022-11-17T02:34:45.510Z,19.20
2022-11-17T02:36:12.518Z,19.50
2022-11-17T02:37:38.360Z,19.80
2022-11-17T02:38:55.493Z,19.90
2022-11-17T02:40:04.698Z,20.10
2022-11-17T02:41:22.924Z,20.20
2022-11-17T02:42:53.975Z,20.30
2022-11-17T02:44:10.737Z,20.40
2022-11-17T02:45:21.878Z,20.50
2022-11-17T02:46:28.462Z,20.50
2022-11-17T02:47:34.485Z,20.60
2022-11-17T02:48:41.334Z,20.60
2022-11-17T02:49:50.219Z,20.60
2022-11-17T02:50:54.403Z,20.70
2022-11-17T02:51:59.036Z,20.70
2022-11-17T02:53:01.385Z,20.70
2022-11-17T02:54:04.463Z,20.70
2022-11-17T02:55:10.641Z,20.80
2022-11-17T02:56:13.189Z,20.80
2022-11-17T02:57:39.903Z,20.80
2022-11-17T02:58:42.371Z,20.90
2022-11-17T02:59:48.731Z,20.70
2022-11-17T03:01:09.077Z,20.50
2022-11-17T03:02:43.985Z,20.20
2022-11-17T03:03:57.232Z,19.90
2022-11-17T03:05:11.113Z,19.90
2022-11-17T03:06:25.308Z,20.00
2022-11-17T03:07:33.333Z,20.20
2022-11-17T03:08:42.789Z,20.30
2022-11-17T03:09:57.134Z,20.40
2022-11-17T03:11:05.283Z,20.50
2022-11-17T03:12:14.983Z,20.60
2022-11-17T03:13:30.958Z,20.70
2022-11-17T03:14:44.082Z,20.70
2022-11-17T03:15:46.326Z,20.80
2022-11-17T03:17:07.579Z,20.80
2022-11-17T03:18:21.195Z,20.90
2022-11-17T03:19:34.913Z,20.90
2022-11-17T03:20:47.470Z,21.00
2022-11-17T03:22:13.658Z,21.00
2022-11-17T03:23:24.476Z,21.00
2022-11-17T03:24:33.559Z,21.10
2022-11-17T03:25:39.665Z,21.10
2022-11-17T03:27:07.405Z,21.10
2022-11-17T03:28:11.703Z,21.10
2022-11-17T03:29:17.478Z,20.70
2022-11-17T03:30:22.246Z,20.40
2022-11-17T03:31:27.678Z,20.20
2022-11-17T03:32:35.992Z,20.00
2022-11-17T03:33:40.453Z,19.80
2022-11-17T03:34:49.233Z,19.70
2022-11-17T03:36:01.725Z,19.80
2022-11-17T03:37:07.134Z,20.00
2022-11-17T03:38:13.469Z,20.20
2022-11-17T03:39:23.679Z,20.30
2022-11-17T03:40:30.889Z,20.50
2022-11-17T03:41:39.129Z,20.50
2022-11-17T03:42:46.591Z,20.70
2022-11-17T03:43:52.829Z,20.70
2022-11-17T03:44:58.220Z,20.80
2022-11-17T03:46:13.067Z,20.80
2022-11-17T03:47:18.168Z,20.90
2022-11-17T03:48:42.041Z,20.90
2022-11-17T03:50:27.820Z,20.90
2022-11-17T03:51:33.371Z,21.00
2022-11-17T03:52:38.053Z,21.00
2022-11-17T03:53:41.901Z,21.10
2022-11-17T03:54:44.338Z,21.10
2022-11-17T03:55:58.940Z,21.10
2022-11-17T03:57:20.695Z,21.10
2022-11-17T03:58:27.874Z,21.10
2022-11-17T03:59:45.344Z,21.10
2022-11-17T04:00:52.085Z,21.10
2022-11-17T04:01:54.575Z,21.20
2022-11-17T04:03:00.268Z,21.20
2022-11-17T04:04:02.815Z,21.20
2022-11-17T04:05:06.839Z,21.20
2022-11-17T04:06:09.164Z,21.20
2022-11-17T04:07:11.510Z,21.20
2022-11-17T04:08:13.824Z,20.90
2022-11-17T04:09:19.990Z,20.50
2022-11-17T04:10:26.333Z,20.50
2022-11-17T04:11:48.947Z,20.70
2022-11-17T04:13:10.857Z,20.80
2022-11-17T04:14:31.889Z,20.80
2022-11-17T04:15:57.525Z,20.90
2022-11-17T04:16:59.797Z,21.00
2022-11-17T04:18:04.228Z,21.00
2022-11-17T04:19:06.586Z,21.00
2022-11-17T04:20:09.814Z,21.10
2022-11-17T04:21:12.115Z,21.10
2022-11-17T04:22:14.421Z,21.10
2022-11-17T04:23:16.746Z,21.10
2022-11-17T04:24:18.971Z,21.10
2022-11-17T04:25:41.208Z,21.20
2022-11-17T04:27:02.284Z,21.20
2022-11-17T04:28:23.341Z,21.20
2022-11-17T04:29:25.693Z,21.20
2022-11-17T04:30:27.976Z,21.20
2022-11-17T04:31:31.621Z,21.20
2022-11-17T04:32:33.899Z,21.30
2022-11-17T04:33:37.720Z,21.30
2022-11-17T04:34:43.327Z,21.30
2022-11-17T04:35:50.664Z,21.30
2022-11-17T04:36:53.024Z,21.30
2022-11-17T04:37:55.290Z,21.30
2022-11-17T04:38:59.302Z,21.30
2022-11-17T04:40:01.734Z,21.30
2022-11-17T04:41:25.812Z,21.30
2022-11-17T04:42:28.942Z,21.30
2022-11-17T04:43:31.386Z,21.30
2022-11-17T04:44:33.612Z,21.30
2022-11-17T04:45:35.917Z,21.30
2022-11-17T04:46:40.349Z,21.30
2022-11-17T04:47:42.607Z,21.40
2022-11-17T04:48:45.657Z,21.40
2022-11-17T04:49:47.940Z,21.40
2022-11-17T04:50:53.893Z,21.40
2022-11-17T04:51:56.393Z,21.40
2022-11-17T04:52:58.666Z,21.40
2022-11-17T04:54:02.427Z,21.40
2022-11-17T04:55:04.999Z,21.40
2022-11-17T04:56:07.829Z,21.40
2022-11-17T04:57:10.170Z,21.40
2022-11-17T04:58:12.533Z,21.50
2022-11-17T04:59:14.845Z,21.50
2022-11-17T05:00:17.507Z,21.50
2022-11-17T05:01:20.884Z,21.50
2022-11-17T05:02:23.217Z,21.50
2022-11-17T05:03:25.506Z,21.50
2022-11-17T05:04:48.078Z,21.30
2022-11-17T05:05:51.022Z,20.90
2022-11-17T05:06:53.361Z,20.90
2022-11-17T05:07:55.659Z,20.90
2022-11-17T05:08:58.992Z,21.00
2022-11-17T05:10:01.465Z,21.10
2022-11-17T05:11:23.259Z,21.10
2022-11-17T05:12:44.075Z,21.20
2022-11-17T05:13:49.113Z,21.30
2022-11-17T05:14:52.284Z,21.30
2022-11-17T05:16:16.486Z,21.30
2022-11-17T05:17:18.737Z,21.40
2022-11-17T05:18:21.043Z,21.40
2022-11-17T05:19:25.892Z,21.40
2022-11-17T05:20:28.214Z,20.90
2022-11-17T05:21:30.471Z,20.70
2022-11-17T05:22:51.581Z,20.80
2022-11-17T05:23:53.975Z,20.90
2022-11-17T05:24:56.545Z,21.00
2022-11-17T05:25:58.826Z,21.10
2022-11-17T05:27:01.373Z,21.10
2022-11-17T05:28:03.632Z,21.20
2022-11-17T05:29:07.769Z,21.20
2022-11-17T05:30:11.000Z,21.30
2022-11-17T05:31:13.663Z,21.30
2022-11-17T05:32:16.331Z,21.30
2022-11-17T05:33:18.631Z,21.30
2022-11-17T05:34:21.248Z,21.40
2022-11-17T05:35:23.505Z,21.40
2022-11-17T05:36:27.205Z,21.40
2022-11-17T05:37:29.456Z,21.50
2022-11-17T05:38:31.923Z,21.50
2022-11-17T05:39:34.244Z,21.50
2022-11-17T05:40:36.589Z,21.00
2022-11-17T05:41:38.896Z,20.40
2022-11-17T05:42:41.330Z,20.50
2022-11-17T05:43:44.114Z,20.60
2022-11-17T05:44:48.311Z,20.70
2022-11-17T05:45:50.620Z,20.90
2022-11-17T05:46:52.894Z,21.00
2022-11-17T05:47:55.134Z,21.10
2022-11-17T05:48:57.443Z,21.20
2022-11-17T05:49:59.751Z,21.20
2022-11-17T05:51:02.742Z,21.30
2022-11-17T05:52:05.273Z,21.30
2022-11-17T05:53:08.238Z,21.30
2022-11-17T05:54:10.585Z,21.40
2022-11-17T05:55:12.926Z,21.40
2022-11-17T05:56:39.525Z,21.40
2022-11-17T05:57:42.362Z,21.50
2022-11-17T05:58:47.346Z,21.50
2022-11-17T05:59:55.510Z,21.50
2022-11-17T06:00:58.298Z,21.50
2022-11-17T06:02:18.820Z,21.50
2022-11-17T06:03:32.017Z,21.60
2022-11-17T06:04:34.858Z,21.60
2022-11-17T06:05:37.361Z,21.60
2022-11-17T06:06:39.634Z,21.60
2022-11-17T06:07:41.969Z,21.60
2022-11-17T06:08:44.218Z,21.60
2022-11-17T06:09:47.472Z,21.60
2022-11-17T06:10:49.774Z,21.60
2022-11-17T06:11:52.128Z,21.70
2022-11-17T06:12:54.370Z,21.70
2022-11-17T06:13:56.713Z,21.70
2022-11-17T06:14:59.005Z,21.70
2022-11-17T06:16:04.462Z,21.70
2022-11-17T06:17:22.573Z,21.70
2022-11-17T06:18:33.349Z,21.80
2022-11-17T06:19:40.343Z,21.80
2022-11-17T06:20:48.355Z,21.80
2022-11-17T06:22:11.093Z,21.80
2022-11-17T06:23:14.599Z,21.90
2022-11-17T06:24:17.340Z,21.90
2022-11-17T06:25:20.603Z,21.90
2022-11-17T06:26:22.948Z,21.90
2022-11-17T06:27:25.920Z,21.90
2022-11-17T06:28:30.250Z,21.90
2022-11-17T06:29:32.690Z,22.00
2022-11-17T06:30:36.778Z,22.00
2022-11-17T06:31:41.139Z,21.60
2022-11-17T06:32:44.226Z,20.90
2022-11-17T06:33:47.322Z,20.50
2022-11-17T06:34:55.239Z,20.50
2022-11-17T06:36:01.002Z,20.70
2022-11-17T06:37:03.288Z,20.90
2022-11-17T06:38:05.610Z,21.10
2022-11-17T06:39:07.880Z,21.20
2022-11-17T06:40:11.588Z,21.40
2022-11-17T06:41:14.001Z,21.40
2022-11-17T06:42:16.267Z,21.50
2022-11-17T06:43:19.093Z,21.60
2022-11-17T06:44:21.370Z,21.60
2022-11-17T06:45:24.229Z,21.70
2022-11-17T06:46:37.708Z,21.70
2022-11-17T06:47:40.335Z,21.60
2022-11-17T06:48:42.667Z,21.60
2022-11-17T06:49:44.956Z,21.60
2022-11-17T06:50:48.706Z,21.60
2022-11-17T06:51:51.041Z,21.60
2022-11-17T06:52:57.732Z,21.60
2022-11-17T06:54:00.210Z,21.60
2022-11-17T06:55:02.647Z,21.60
2022-11-17T06:56:07.196Z,21.60
2022-11-17T06:57:09.828Z,21.60
2022-11-17T06:58:12.285Z,21.70
2022-11-17T06:59:15.983Z,21.70
2022-11-17T07:00:19.165Z,21.80
2022-11-17T07:01:21.705Z,21.80
2022-11-17T07:02:24.192Z,21.80
2022-11-17T07:03:26.566Z,21.80
2022-11-17T07:04:29.795Z,21.80
2022-11-17T07:05:33.946Z,21.80
2022-11-17T07:06:37.412Z,21.80
2022-11-17T07:07:39.839Z,21.80
2022-11-17T07:08:42.596Z,21.80
2022-11-17T07:09:45.010Z,21.70
2022-11-17T07:10:51.526Z,21.80
2022-11-17T07:11:53.969Z,21.80
2022-11-17T07:12:56.926Z,21.80
2022-11-17T07:13:59.357Z,21.80
2022-11-17T07:15:01.932Z,21.80
2022-11-17T07:16:07.048Z,21.80
2022-11-17T07:17:09.441Z,21.80
2022-11-17T07:18:11.874Z,21.90
2022-11-17T07:19:14.231Z,21.80
2022-11-17T07:20:17.196Z,21.90
2022-11-17T07:21:19.786Z,21.90
2022-11-17T07:22:22.170Z,21.90
2022-11-17T07:23:24.472Z,21.90
2022-11-17T07:24:26.852Z,21.90
2022-11-17T07:25:29.180Z,21.90
2022-11-17T07:26:31.473Z,21.90
2022-11-17T07:27:34.036Z,21.90
2022-11-17T07:28:36.974Z,21.90
2022-11-17T07:29:39.557Z,21.90
2022-11-17T07:30:41.923Z,21.90
2022-11-17T07:31:44.296Z,21.90
2022-11-17T07:32:51.923Z,21.90
2022-11-17T07:33:57.008Z,21.90
2022-11-17T07:35:01.511Z,22.00
2022-11-17T07:36:06.003Z,22.00
2022-11-17T07:37:08.395Z,22.00
2022-11-17T07:38:10.961Z,21.90
2022-11-17T07:39:21.089Z,21.90
2022-11-17T07:40:23.904Z,21.80
2022-11-17T07:41:26.253Z,21.70
2022-11-17T07:42:28.610Z,21.60
2022-11-17T07:43:31.577Z,21.60
2022-11-17T07:44:34.474Z,21.60
2022-11-17T07:45:37.051Z,21.50
2022-11-17T07:46:39.392Z,21.50
2022-11-17T07:47:41.895Z,21.40
2022-11-17T07:48:44.549Z,21.50
2022-11-17T07:49:46.967Z,21.30
2022-11-17T07:50:49.600Z,21.40
2022-11-17T07:51:51.950Z,21.50
2022-11-17T07:52:56.029Z,21.50
2022-11-17T07:53:58.403Z,21.50
2022-11-17T07:55:00.780Z,21.60
2022-11-17T07:56:05.117Z,21.60
2022-11-17T07:57:07.435Z,21.60
2022-11-17T07:58:09.764Z,21.70
2022-11-17T07:59:15.962Z,21.70
2022-11-17T08:00:21.082Z,21.70
2022-11-17T08:01:23.539Z,21.70
2022-11-17T08:02:25.992Z,21.70
2022-11-17T08:03:28.372Z,21.80
2022-11-17T08:04:30.773Z,21.80
2022-11-17T08:05:42.971Z,21.90
2022-11-17T08:06:46.718Z,22.00
2022-11-17T08:07:56.611Z,22.00
2022-11-17T08:08:58.963Z,22.00
2022-11-17T08:10:01.361Z,22.00
2022-11-17T08:11:09.711Z,22.10
2022-11-17T08:12:12.035Z,22.10
2022-11-17T08:13:15.416Z,22.10
2022-11-17T08:14:17.838Z,22.10
2022-11-17T08:15:22.216Z,22.20
2022-11-17T08:16:27.223Z,22.20
2022-11-17T08:17:31.443Z,22.20
2022-11-17T08:18:34.186Z,22.10
2022-11-17T08:19:36.881Z,22.10
2022-11-17T08:20:39.273Z,22.10
2022-11-17T08:21:41.580Z,22.00
2022-11-17T08:22:44.319Z,22.00
2022-11-17T08:23:52.074Z,22.00
2022-11-17T08:24:54.528Z,22.00
2022-11-17T08:25:57.041Z,22.00
2022-11-17T08:26:59.408Z,22.00
2022-11-17T08:28:01.755Z,22.00
2022-11-17T08:29:04.401Z,22.00
2022-11-17T08:30:07.792Z,22.00
2022-11-17T08:31:10.210Z,22.00
2022-11-17T08:32:12.581Z,22.00
2022-11-17T08:33:14.929Z,22.00
2022-11-17T08:34:17.402Z,22.00
2022-11-17T08:35:22.560Z,22.00
2022-11-17T08:36:24.886Z,22.10
2022-11-17T08:37:27.285Z,22.10
2022-11-17T08:38:29.920Z,22.00
2022-11-17T08:39:32.335Z,21.90
2022-11-17T08:40:34.676Z,21.80
2022-11-17T08:41:37.125Z,21.80
2022-11-17T08:42:39.901Z,21.70
2022-11-17T08:43:42.558Z,21.70
2022-11-17T08:44:45.583Z,21.70
2022-11-17T08:45:47.921Z,21.80
2022-11-17T08:46:50.337Z,21.90
2022-11-17T08:47:53.404Z,21.90
2022-11-17T08:48:57.281Z,21.90
2022-11-17T08:50:00.040Z,21.90
2022-11-17T08:51:08.702Z,21.90
2022-11-17T08:52:11.064Z,21.90
2022-11-17T08:53:21.024Z,21.90
2022-11-17T08:54:23.548Z,21.90
2022-11-17T08:55:26.723Z,21.90
2022-11-17T08:56:29.114Z,22.00
2022-11-17T08:57:32.671Z,21.90
2022-11-17T08:58:39.564Z,22.00
2022-11-17T08:59:42.004Z,22.00
2022-11-17T09:00:46.644Z,22.00
2022-11-17T09:01:49.027Z,22.00
2022-11-17T09:02:51.767Z,22.00
2022-11-17T09:03:54.165Z,22.00
2022-11-17T09:04:56.882Z,22.00
2022-11-17T09:05:59.969Z,22.00
2022-11-17T09:07:02.351Z,22.00
2022-11-17T09:08:22.753Z,22.10
2022-11-17T09:09:31.492Z,22.10
2022-11-17T09:10:34.087Z,22.20
2022-11-17T09:11:36.417Z,22.30
2022-11-17T09:12:38.754Z,22.30
2022-11-17T09:13:41.692Z,22.30
2022-11-17T09:14:44.331Z,22.10
2022-11-17T09:15:46.607Z,21.80
2022-11-17T09:16:49.127Z,21.70
2022-11-17T09:17:51.913Z,21.60
2022-11-17T09:18:58.349Z,21.60
2022-11-17T09:20:00.683Z,21.80
2022-11-17T09:21:05.237Z,21.90
2022-11-17T09:22:07.720Z,21.90
2022-11-17T09:23:10.307Z,21.90
2022-11-17T09:24:12.573Z,22.10
2022-11-17T09:25:15.238Z,22.10
2022-11-17T09:26:17.890Z,22.10
2022-11-17T09:27:20.239Z,22.10
2022-11-17T09:28:25.407Z,22.10
2022-11-17T09:29:27.744Z,22.10
2022-11-17T09:30:30.176Z,22.10
2022-11-17T09:31:32.871Z,22.10
2022-11-17T09:32:35.660Z,22.00
2022-11-17T09:33:38.093Z,22.00
2022-11-17T09:34:40.611Z,22.00
2022-11-17T09:35:43.067Z,22.00
2022-11-17T09:36:45.385Z,22.00
2022-11-17T09:37:47.676Z,22.00
2022-11-17T09:38:50.928Z,22.00
2022-11-17T09:39:53.481Z,22.00
2022-11-17T09:40:58.361Z,22.00
2022-11-17T09:42:01.389Z,22.00
2022-11-17T09:43:08.695Z,22.00
2022-11-17T09:44:32.372Z,22.00
2022-11-17T09:45:38.740Z,22.00
2022-11-17T09:46:50.934Z,22.00
2022-11-17T09:48:25.846Z,22.00
2022-11-17T09:49:35.464Z,22.00
2022-11-17T09:50:39.846Z,22.00
2022-11-17T09:51:44.619Z,22.10
2022-11-17T09:52:50.032Z,22.00
2022-11-17T09:54:07.963Z,22.10
2022-11-17T09:55:31.143Z,22.10
2022-11-17T09:56:36.435Z,22.10
2022-11-17T09:57:49.069Z,22.00
2022-11-17T09:58:53.895Z,21.90
2022-11-17T10:00:21.508Z,21.90
2022-11-17T10:01:27.303Z,21.90
2022-11-17T10:02:29.843Z,21.80
2022-11-17T10:03:40.234Z,21.80
2022-11-17T10:04:46.721Z,21.80
2022-11-17T10:05:51.644Z,21.80
2022-11-17T10:06:54.236Z,21.80
2022-11-17T10:08:01.716Z,21.80
2022-11-17T10:09:36.538Z,21.80
2022-11-17T10:10:48.776Z,21.80
2022-11-17T10:11:52.786Z,21.80
2022-11-17T10:12:58.142Z,21.80
2022-11-17T10:14:12.198Z,21.80
2022-11-17T10:15:31.081Z,21.90
2022-11-17T10:16:33.657Z,21.80
2022-11-17T10:17:36.061Z,21.80
2022-11-17T10:18:39.987Z,21.90
2022-11-17T10:19:45.148Z,21.80
2022-11-17T10:20:47.614Z,21.80
2022-11-17T10:22:02.198Z,21.80
2022-11-17T10:23:07.182Z,21.80
2022-11-17T10:24:09.870Z,21.80
2022-11-17T10:25:28.169Z,21.90
2022-11-17T10:26:45.332Z,21.90
2022-11-17T10:27:53.827Z,21.90
2022-11-17T10:29:08.722Z,21.90
2022-11-17T10:30:24.696Z,21.80
2022-11-17T10:31:29.362Z,21.60
2022-11-17T10:32:35.920Z,21.40
2022-11-17T10:33:47.643Z,21.30
2022-11-17T10:34:50.184Z,21.40
2022-11-17T10:35:58.870Z,21.50
2022-11-17T10:37:27.449Z,21.50
2022-11-17T10:38:30.783Z,21.60
2022-11-17T10:39:42.164Z,21.70
2022-11-17T10:40:45.307Z,21.70
2022-11-17T10:41:50.400Z,21.70
2022-11-17T10:43:01.889Z,21.80
2022-11-17T10:44:06.082Z,21.80
2022-11-17T10:45:17.305Z,21.80
2022-11-17T10:46:19.647Z,21.80
2022-11-17T10:47:27.680Z,21.80
2022-11-17T10:49:06.965Z,21.80
2022-11-17T10:50:30.283Z,21.80
2022-11-17T10:51:35.126Z,21.80
2022-11-17T10:52:39.797Z,21.80
2022-11-17T10:53:46.743Z,21.80
2022-11-17T10:54:50.598Z,21.80
2022-11-17T10:56:00.737Z,21.80
2022-11-17T10:57:08.277Z,21.80
2022-11-17T10:58:27.144Z,21.80
2022-11-17T10:59:42.169Z,21.80
2022-11-17T11:00:53.414Z,21.80
2022-11-17T11:01:56.055Z,21.80
2022-11-17T11:03:26.336Z,21.80
2022-11-17T11:04:39.680Z,21.80
2022-11-17T11:06:03.397Z,21.80
2022-11-17T11:07:30.682Z,21.80
2022-11-17T11:08:51.482Z,21.80
2022-11-17T11:09:53.809Z,21.80
2022-11-17T11:10:59.711Z,21.80
2022-11-17T11:12:03.803Z,21.80
2022-11-17T11:13:24.632Z,21.80
2022-11-17T11:14:50.294Z,21.80
2022-11-17T11:15:53.511Z,21.80
2022-11-17T11:16:56.045Z,21.80
2022-11-17T11:17:59.448Z,21.80
2022-11-17T11:19:01.822Z,21.80
2022-11-17T11:20:04.561Z,21.80
2022-11-17T11:21:13.025Z,21.80
2022-11-17T11:22:27.733Z,21.80
2022-11-17T11:23:55.895Z,21.80
2022-11-17T11:25:15.999Z,21.80
2022-11-17T11:26:40.239Z,21.80
2022-11-17T11:28:04.894Z,21.80
2022-11-17T11:29:22.885Z,21.80
2022-11-17T11:30:26.671Z,21.80
2022-11-17T11:31:32.444Z,21.80
2022-11-17T11:32:37.466Z,21.80
2022-11-17T11:33:47.628Z,21.90
2022-11-17T11:34:57.023Z,21.80
2022-11-17T11:36:23.972Z,21.80
2022-11-17T11:37:51.566Z,21.60
2022-11-17T11:38:57.675Z,21.60
2022-11-17T11:40:21.993Z,21.60
2022-11-17T11:41:29.677Z,21.70
2022-11-17T11:43:04.978Z,21.70
2022-11-17T11:44:44.976Z,21.70
2022-11-17T11:45:59.278Z,21.80
2022-11-17T11:47:16.163Z,21.80
2022-11-17T11:48:40.456Z,21.80
2022-11-17T11:50:05.003Z,21.80
2022-11-17T11:51:16.224Z,21.90
2022-11-17T11:52:26.951Z,21.90
2022-11-17T11:53:42.335Z,21.90
2022-11-17T11:54:58.670Z,21.90
2022-11-17T11:56:17.159Z,21.90
2022-11-17T11:57:28.886Z,21.90
2022-11-17T11:58:31.470Z,21.90
2022-11-17T11:59:59.494Z,21.90
2022-11-17T12:01:12.087Z,21.90
2022-11-17T12:02:24.996Z,22.00
2022-11-17T12:03:55.096Z,22.00
2022-11-17T12:05:16.823Z,22.00
2022-11-17T12:06:40.799Z,22.00
2022-11-17T12:07:50.229Z,22.00
2022-11-17T12:09:09.305Z,22.00
2022-11-17T12:10:11.727Z,22.00
2022-11-17T12:11:35.020Z,22.00
2022-11-17T12:12:39.388Z,22.00
2022-11-17T12:13:48.489Z,22.10
2022-11-17T12:15:19.999Z,22.20
2022-11-17T12:16:34.490Z,22.20
2022-11-17T12:17:38.014Z,22.20
2022-11-17T12:18:40.994Z,22.10
2022-11-17T12:19:54.338Z,22.00
2022-11-17T12:21:01.304Z,22.00
2022-11-17T12:22:03.825Z,22.00
2022-11-17T12:23:15.462Z,22.00
2022-11-17T12:24:25.861Z,22.00
2022-11-17T12:25:31.364Z,22.10
2022-11-17T12:26:34.911Z,22.10
2022-11-17T12:27:38.317Z,22.10
2022-11-17T12:28:41.485Z,22.00
2022-11-17T12:29:47.390Z,22.00
2022-11-17T12:30:52.629Z,22.10
2022-11-17T12:32:03.882Z,22.00
2022-11-17T12:33:08.656Z,22.00
2022-11-17T12:34:30.708Z,22.10
2022-11-17T12:35:39.025Z,22.20
2022-11-17T12:36:41.575Z,22.00
2022-11-17T12:37:45.400Z,22.00
2022-11-17T12:38:48.170Z,22.00
2022-11-17T12:40:34.973Z,22.00
2022-11-17T12:41:49.729Z,22.00
2022-11-17T12:43:16.764Z,21.90
2022-11-17T12:44:37.460Z,22.00
2022-11-17T12:46:06.876Z,22.00
2022-11-17T12:47:24.370Z,22.00
2022-11-17T12:48:35.279Z,22.00
2022-11-17T12:50:03.647Z,22.10
2022-11-17T12:51:28.472Z,22.00
2022-11-17T12:52:55.162Z,21.80
2022-11-17T12:54:06.840Z,21.80
2022-11-17T12:55:33.092Z,21.80
2022-11-17T12:57:08.357Z,21.90
2022-11-17T12:58:25.131Z,21.90
2022-11-17T12:59:49.066Z,21.90
2022-11-17T13:01:13.816Z,21.90
2022-11-17T13:02:22.683Z,22.00
2022-11-17T13:03:39.180Z,22.00
2022-11-17T13:04:49.791Z,22.00
2022-11-17T13:06:34.285Z,22.00
2022-11-17T13:07:35.862Z,22.00
2022-11-17T13:08:38.436Z,22.00
2022-11-17T13:09:42.123Z,22.00
2022-11-17T13:10:45.819Z,22.00
2022-11-17T13:12:04.309Z,21.90
2022-11-17T13:13:10.712Z,22.00
2022-11-17T13:14:17.440Z,22.00
2022-11-17T13:15:23.957Z,22.00
2022-11-17T13:16:26.475Z,22.00
2022-11-17T13:17:34.553Z,22.00
2022-11-17T13:18:40.355Z,22.00
2022-11-17T13:19:43.909Z,22.00
2022-11-17T13:20:49.032Z,22.00
2022-11-17T13:21:59.613Z,22.00
2022-11-17T13:23:04.480Z,22.00
2022-11-17T13:24:08.677Z,22.00
2022-11-17T13:25:23.350Z,22.00
2022-11-17T13:26:38.106Z,22.00
2022-11-17T13:27:49.179Z,22.00
2022-11-17T13:29:08.046Z,22.00
2022-11-17T13:30:23.525Z,22.00
2022-11-17T13:31:26.026Z,22.00
2022-11-17T13:32:28.722Z,22.00
2022-11-17T13:33:38.404Z,22.00
2022-11-17T13:34:46.332Z,22.00
2022-11-17T13:35:48.645Z,22.00
2022-11-17T13:36:59.208Z,22.00
2022-11-17T13:38:21.982Z,22.00
2022-11-17T13:39:27.777Z,22.00
2022-11-17T13:40:31.901Z,22.00
2022-11-17T13:41:39.121Z,22.00
2022-11-17T13:42:41.829Z,22.00
2022-11-17T13:43:46.107Z,22.00
2022-11-17T13:44:48.878Z,22.00
2022-11-17T13:45:52.977Z,22.00
2022-11-17T13:46:56.056Z,22.00
2022-11-17T13:47:59.443Z,22.00
2022-11-17T13:49:21.821Z,22.00
2022-11-17T13:50:26.854Z,22.00
2022-11-17T13:51:39.335Z,22.00
2022-11-17T13:52:46.717Z,22.00
2022-11-17T13:54:06.864Z,22.00
2022-11-17T13:55:17.656Z,22.00
2022-11-17T13:56:41.980Z,22.00
2022-11-17T13:58:07.783Z,22.00
2022-11-17T13:59:31.237Z,22.00
2022-11-17T14:00:34.178Z,22.00
2022-11-17T14:01:36.635Z,22.10
2022-11-17T14:03:03.136Z,21.80
2022-11-17T14:04:21.222Z,21.80
2022-11-17T14:05:28.692Z,21.70
2022-11-17T14:07:00.530Z,21.70
2022-11-17T14:08:27.080Z,21.70
2022-11-17T14:09:31.965Z,21.70
2022-11-17T14:10:38.092Z,21.60
2022-11-17T14:11:41.749Z,21.60
2022-11-17T14:12:44.487Z,21.70
2022-11-17T14:13:58.636Z,21.70
2022-11-17T14:15:01.022Z,21.80
2022-11-17T14:16:03.533Z,21.80
2022-11-17T14:17:18.696Z,21.80
2022-11-17T14:18:37.404Z,21.90
2022-11-17T14:19:39.996Z,21.90
2022-11-17T14:20:42.503Z,21.90
2022-11-17T14:22:03.746Z,22.00
2022-11-17T14:23:17.871Z,22.00
2022-11-17T14:24:20.230Z,22.00
2022-11-17T14:25:22.555Z,22.00
2022-11-17T14:26:25.289Z,22.00
2022-11-17T14:27:27.615Z,22.00
2022-11-17T14:28:30.010Z,22.10
2022-11-17T14:29:32.740Z,22.10
2022-11-17T14:30:35.218Z,22.10
2022-11-17T14:31:37.563Z,22.00
2022-11-17T14:32:40.188Z,22.10
2022-11-17T14:33:42.825Z,22.10
2022-11-17T14:34:45.168Z,22.10